Wayne, NE

6:29 PM CST on January 22, 2017 (GMT -0600)
Courthouse Hill | | Change Station
Active Advisory: Winter Storm Watch

Elev 1512 ft 42.23 °N, 97.02 °W | Updated 8 seconds ago

Clear
Clear
34.9 °F
Feels Like 35 °F
N
2.5
Wind Variable Wind from WNW
Gusts 2.5 mph

Today
High -- | Low -- °F
--% Chance of Precip.
Yesterday
High -- | Low -- °F
Precip. -- in
Pressure 29.85 in
Visibility 10.0 miles
Clouds Clear
Windchill 35 °F
Dew Point 19 °F
Humidity 53%
Rainfall 0.00 in
Snow Depth Not available.
7:49 AM 5:30 PM
Waning Crescent, 22% visible
METAR KLCG 230015Z AUTO 31004KT 10SM CLR 01/M01 A2985 RMK AO2 T00101006
Pressure 29.85 in
Visibility 10.0 miles
Clouds Clear
Windchill 35 °F
Dew Point 19 °F
Humidity 53%
Rainfall 0.00 in
Snow Depth Not available.
7:49 AM 5:30 PM
Waning Crescent, 22% visible
METAR KLCG 230015Z AUTO 31004KT 10SM CLR 01/M01 A2985 RMK AO2 T00101006

Get Your Daily Forecast Email!

Thanks for signing up!

Be on the lookout for a verification email in your inbox.

You'll start receiving the daily forecast at 8 AM.

×

10-Day Weather Forecast

Almanac

Astronomy

Jan. 22, 2017 Rise Set
Actual Time
Civil Twilight
Nautical Twilight
Astronomical Twilight
Moon
Length of Visible Light
Length of Day
Tomorrow will be .
, % of the Moon is Illuminated

Today's Extremes

State Highs State Lows

Community

WunderPhotos

Upload Photos

1,962,540 photos uploaded!

WunderBlog® & News

Nearby

Air Quality

  Air Quality AQ Index Pollutant
Not available.

Snow Depth

Station Depth Elevation

Earthquake Activity

City Distance Mag. Time & Date
Minimum magnitude displayed is 2.5.

Coastal Water Temperatures

Place Temperature

Stations

Nearby Weather Stations

Station Location Temp. Windchill Dew Point Humidity Wind Precip. Elev Updated Type
                   

Watches & Warnings

Winter Storm Watch
Issued: 2:40 PM CST Jan. 22, 2017 – National Weather Service

... Winter Storm Watch in effect from Tuesday morning through late
Tuesday night...

The National Weather Service in Omaha/valley has issued a Winter
Storm Watch... which is in effect from Tuesday morning through
late Tuesday night.

* Timing... snow starting during the day Tuesday in northeast
Nebraska... continuing through Tuesday night.

* Main impact... hazardous travel due to snow packed roads and low
visibility with blowing and drifting snow.

* Accumulations... snow accumulations from 4 to 6 inches or more
are possible.

* Winds... north or northwest winds from 15 to 30 mph could cause
considerable blowing and drifting snow... especially Tuesday
night.

Precautionary/preparedness actions...

A Winter Storm Watch means there is a potential for significant
snow, sleet, or ice accumulations that may impact travel. This
system is also expected to have enough wind to cause blowing and
drifting snow. Continue to monitor the latest forecasts.